Time;durP1;ratioP1;P1;durP2;ratioP2;P2;SDS_P1;SDS_P2;PMS_P1;PMS_P2;Temp;Humidity;BMP_temperature;BMP_pressure;BME280_temperature;BME280_humidity;BME280_pressure;Samples;Min_cycle;Max_cycle;Signal;HPM_P1;HPM_P2
2022/07/18 00:00:00;;;;;;;8.00;4.30;;;;;;;18.58;53.87;100130.22;4984147;28;20215;-82
2022/07/18 00:02:26;;;;;;;12.85;4.90;;;;;;;18.64;53.92;100126.19;4987445;28;20491;-82
2022/07/18 00:04:52;;;;;;;9.67;3.63;;;;;;;18.65;53.90;100125.19;4988356;28;20230;-82
2022/07/18 00:07:18;;;;;;;8.07;3.97;;;;;;;18.63;54.00;100122.66;4984554;28;20292;-82
2022/07/18 00:09:43;;;;;;;7.57;3.60;;;;;;;18.63;53.86;100124.47;4987216;28;20477;-82
2022/07/18 00:12:10;;;;;;;11.50;4.10;;;;;;;18.62;53.90;100128.97;4987513;28;20580;-82
2022/07/18 00:14:37;;;;;;;5.30;3.20;;;;;;;18.56;53.91;100132.19;4986231;28;20711;-80
2022/07/18 00:17:04;;;;;;;15.93;6.00;;;;;;;18.41;54.63;100134.34;4987045;28;20503;-82
2022/07/18 00:19:29;;;;;;;13.13;5.00;;;;;;;18.24;55.08;100133.19;4986305;28;20459;-82
2022/07/18 00:21:55;;;;;;;8.90;4.40;;;;;;;18.06;55.74;100134.78;4982817;28;20521;-81
2022/07/18 00:24:20;;;;;;;7.67;3.60;;;;;;;17.89;56.32;100134.41;4988439;28;20211;-82
2022/07/18 00:26:46;;;;;;;8.83;4.20;;;;;;;17.75;56.76;100142.72;4987938;28;20235;-82
2022/07/18 00:29:11;;;;;;;8.63;4.20;;;;;;;17.65;57.03;100141.78;4966218;28;20249;-81
2022/07/18 00:31:37;;;;;;;5.93;4.00;;;;;;;17.56;57.28;100145.25;4980879;28;20205;-82
2022/07/18 00:34:03;;;;;;;12.55;4.30;;;;;;;17.52;57.78;100141.97;4970490;28;20484;-82
2022/07/18 00:36:30;;;;;;;7.90;4.00;;;;;;;17.44;57.94;100144.44;4985447;28;20936;-81
2022/07/18 00:38:56;;;;;;;9.00;4.00;;;;;;;17.36;58.10;100146.91;4989107;28;20593;-81
2022/07/18 00:41:22;;;;;;;5.50;3.30;;;;;;;17.33;58.11;100144.50;4989152;28;20851;-80
2022/07/18 00:43:49;;;;;;;4.60;3.67;;;;;;;17.31;58.21;100144.66;4989574;28;20481;-82
2022/07/18 00:46:15;;;;;;;16.87;4.53;;;;;;;17.30;58.29;100139.44;4983541;28;20539;-81
2022/07/18 00:48:42;;;;;;;5.20;4.60;;;;;;;17.24;58.39;100149.59;4977189;28;21012;-79
2022/07/18 00:51:08;;;;;;;13.17;4.87;;;;;;;17.21;58.58;100154.34;4980496;28;20208;-82
2022/07/18 00:53:34;;;;;;;7.10;3.40;;;;;;;17.21;58.50;100152.53;4988992;28;20490;-81
2022/07/18 00:56:01;;;;;;;11.83;5.60;;;;;;;17.26;58.38;100141.53;4988476;28;21034;-82
2022/07/18 00:58:28;;;;;;;5.00;4.13;;;;;;;17.33;58.28;100145.34;4990261;28;20485;-82
2022/07/18 01:03:38;;;;;;;9.82;4.43;;;;;;;17.42;59.07;100144.59;4991618;28;20488;-82
2022/07/18 01:06:03;;;;;;;9.30;4.23;;;;;;;17.39;59.11;100138.66;5002370;23;20256;-79
2022/07/18 01:08:29;;;;;;;9.43;4.70;;;;;;;17.38;59.09;100150.28;4985501;28;20240;-78
2022/07/18 01:10:54;;;;;;;6.00;3.90;;;;;;;17.33;59.15;100144.50;4989858;28;20556;-78
2022/07/18 01:13:20;;;;;;;6.00;3.50;;;;;;;17.29;59.12;100146.56;4992127;28;20192;-78
2022/07/18 01:15:46;;;;;;;7.97;3.83;;;;;;;17.29;59.04;100151.06;4985505;28;20246;-78
2022/07/18 01:18:12;;;;;;;9.23;3.77;;;;;;;17.27;59.14;100150.34;4990523;28;20208;-78
2022/07/18 01:20:37;;;;;;;8.90;5.27;;;;;;;17.30;58.95;100148.25;4992961;28;20762;-78
2022/07/18 01:23:03;;;;;;;4.43;3.70;;;;;;;17.31;59.05;100146.44;4991350;28;20615;-78
2022/07/18 01:25:29;;;;;;;10.10;3.77;;;;;;;17.32;59.00;100148.13;4973410;28;20465;-78
2022/07/18 01:27:56;;;;;;;5.50;3.97;;;;;;;17.31;59.09;100144.66;4988141;28;20490;-78
2022/07/18 01:30:23;;;;;;;3.37;3.07;;;;;;;17.27;59.17;100143.19;4990139;28;20200;-78
2022/07/18 01:32:58;;;;;;;15.15;4.00;;;;;;;17.28;59.73;100144.03;4985007;28;20488;-79
2022/07/18 01:35:24;;;;;;;4.73;4.33;;;;;;;17.25;59.90;100145.13;4991769;28;20999;-79
2022/07/18 01:37:54;;;;;;;5.70;4.90;;;;;;;17.19;60.03;100150.97;4991009;28;20992;-79
2022/07/18 01:40:20;;;;;;;9.40;3.80;;;;;;;17.13;60.18;100148.81;4988267;28;20461;-78
2022/07/18 01:42:45;;;;;;;4.17;2.90;;;;;;;17.05;60.34;100148.59;4988108;28;21154;-78
2022/07/18 01:45:11;;;;;;;6.10;3.53;;;;;;;16.98;60.52;100151.75;4991972;28;20456;-78
2022/07/18 01:47:36;;;;;;;5.37;4.80;;;;;;;16.91;60.62;100153.22;4990327;28;20206;-78
2022/07/18 01:50:03;;;;;;;6.23;4.57;;;;;;;16.87;60.77;100156.25;4991388;28;20207;-78
2022/07/18 01:52:28;;;;;;;5.43;3.37;;;;;;;16.82;60.88;100159.25;4991029;28;20234;-78
2022/07/18 01:54:54;;;;;;;4.83;3.57;;;;;;;16.73;61.07;100160.81;4990540;28;20487;-78
2022/07/18 01:57:19;;;;;;;7.33;3.80;;;;;;;16.67;61.29;100155.19;4990252;28;20228;-78
2022/07/18 01:59:47;;;;;;;4.87;3.63;;;;;;;16.63;61.45;100153.72;4984709;28;20270;-78
2022/07/18 02:02:13;;;;;;;6.20;5.40;;;;;;;16.58;61.47;100160.25;4987349;28;20480;-78
2022/07/18 02:07:22;;;;;;;8.50;5.43;;;;;;;16.45;61.74;100162.19;4989123;28;20236;-78
2022/07/18 02:09:47;;;;;;;5.27;3.83;;;;;;;16.43;61.93;100161.47;4986260;28;20491;-78
2022/07/18 02:12:13;;;;;;;6.47;3.83;;;;;;;16.42;62.03;100162.44;4988436;28;20657;-78
2022/07/18 02:14:38;;;;;;;3.93;3.20;;;;;;;16.42;62.19;100150.97;4990516;28;20804;-78
2022/07/18 02:17:03;;;;;;;7.43;3.90;;;;;;;16.40;62.31;100152.94;4990378;28;20216;-78
2022/07/18 02:19:29;;;;;;;6.50;3.60;;;;;;;16.37;62.50;100156.66;4989707;28;20223;-78
2022/07/18 02:21:54;;;;;;;4.07;3.67;;;;;;;16.31;62.68;100158.00;4989087;28;20215;-78
2022/07/18 02:24:20;;;;;;;8.00;4.10;;;;;;;16.32;62.97;100161.47;4954474;28;20251;-78
2022/07/18 02:26:45;;;;;;;3.83;3.50;;;;;;;16.33;63.08;100163.16;4952170;28;20256;-78
2022/07/18 02:29:10;;;;;;;7.80;7.07;;;;;;;16.24;63.24;100167.38;4949728;28;20202;-78
2022/07/18 02:31:36;;;;;;;7.40;4.77;;;;;;;16.12;63.68;100160.38;4951767;28;20209;-78
2022/07/18 02:34:09;;;;;;;5.95;4.32;;;;;;;16.03;64.47;100154.00;4949742;28;20518;-79
2022/07/18 02:36:34;;;;;;;5.70;3.90;;;;;;;15.88;64.56;100166.63;4950141;28;20284;-78
2022/07/18 02:39:00;;;;;;;4.10;3.50;;;;;;;15.74;65.07;100168.63;4952289;28;20477;-79
2022/07/18 02:41:25;;;;;;;11.83;4.70;;;;;;;15.66;65.28;100163.88;4950895;28;20216;-78
2022/07/18 02:43:50;;;;;;;13.23;5.20;;;;;;;15.56;65.50;100163.75;4952658;29;20210;-78
2022/07/18 02:46:16;;;;;;;6.03;3.83;;;;;;;15.46;65.49;100162.75;4950127;28;20267;-78
2022/07/18 02:48:41;;;;;;;8.60;5.27;;;;;;;15.38;66.19;100159.84;4953818;28;20299;-78
2022/07/18 02:51:07;;;;;;;4.40;3.93;;;;;;;15.32;66.35;100171.72;4950434;28;20200;-77
2022/07/18 02:53:32;;;;;;;4.33;3.70;;;;;;;15.30;66.34;100167.50;4949723;28;20340;-78
2022/07/18 02:55:58;;;;;;;5.80;3.50;;;;;;;15.23;66.47;100172.44;4952174;29;20225;-78
2022/07/18 02:58:23;;;;;;;5.10;4.37;;;;;;;15.19;66.58;100171.78;4949831;28;20221;-79
2022/07/18 03:00:49;;;;;;;4.57;3.63;;;;;;;15.23;66.45;100167.13;4951369;28;20490;-78
2022/07/18 03:03:14;;;;;;;8.70;4.90;;;;;;;15.23;66.44;100165.31;4950807;29;20204;-78
2022/07/18 03:05:39;;;;;;;8.70;3.83;;;;;;;15.18;66.65;100159.53;4950395;29;20272;-79
2022/07/18 03:08:05;;;;;;;5.10;4.63;;;;;;;15.17;66.85;100162.28;4950159;28;20246;-78
2022/07/18 03:10:30;;;;;;;7.10;4.90;;;;;;;15.16;66.66;100164.06;4949216;28;20213;-78
2022/07/18 03:12:56;;;;;;;4.00;3.60;;;;;;;15.16;66.44;100166.72;4951887;28;20218;-78
2022/07/18 03:15:21;;;;;;;7.53;4.80;;;;;;;15.18;66.62;100163.97;4951477;28;20216;-78
2022/07/18 03:17:47;;;;;;;4.80;4.33;;;;;;;15.21;66.46;100164.59;4948734;28;20318;-78
2022/07/18 03:20:12;;;;;;;4.33;3.90;;;;;;;15.27;66.29;100169.41;4948416;28;20240;-78
2022/07/18 03:22:38;;;;;;;6.73;4.27;;;;;;;15.31;66.02;100170.06;4951231;28;20217;-78
2022/07/18 03:25:04;;;;;;;5.73;4.33;;;;;;;15.30;66.03;100172.81;4951672;28;20224;-78
2022/07/18 03:27:29;;;;;;;7.27;4.83;;;;;;;15.32;66.10;100176.19;4947866;28;20340;-78
2022/07/18 03:29:54;;;;;;;5.67;4.13;;;;;;;15.32;66.20;100168.25;4949776;28;20618;-78
2022/07/18 03:32:20;;;;;;;7.20;3.93;;;;;;;15.32;66.15;100170.91;4944198;28;20219;-78
2022/07/18 03:34:45;;;;;;;4.43;4.07;;;;;;;15.31;66.12;100175.34;4941738;28;20345;-78
2022/07/18 03:37:11;;;;;;;5.60;4.10;;;;;;;15.29;65.93;100171.13;4949876;28;20697;-78
2022/07/18 03:39:36;;;;;;;5.43;4.63;;;;;;;15.21;66.13;100169.88;4950136;28;20641;-78
2022/07/18 03:42:02;;;;;;;4.43;4.03;;;;;;;15.17;66.20;100173.69;4949671;28;20268;-78
2022/07/18 03:44:27;;;;;;;7.33;4.40;;;;;;;15.17;66.34;100171.03;4948817;28;20224;-79
2022/07/18 03:46:53;;;;;;;5.57;4.17;;;;;;;15.21;66.00;100169.88;4950083;28;20491;-78
2022/07/18 03:49:19;;;;;;;7.03;4.90;;;;;;;15.21;66.18;100164.59;4948399;28;20208;-79
2022/07/18 03:51:45;;;;;;;4.97;4.43;;;;;;;15.20;66.29;100169.97;4938924;28;20618;-78
2022/07/18 03:54:10;;;;;;;4.37;3.97;;;;;;;15.19;66.39;100165.66;4947219;28;20435;-79
2022/07/18 03:56:36;;;;;;;6.13;3.80;;;;;;;15.22;66.13;100170.72;4947994;28;21001;-79
2022/07/18 03:59:02;;;;;;;3.70;3.37;;;;;;;15.25;66.35;100167.84;4950709;28;20266;-78
2022/07/18 04:01:27;;;;;;;5.33;4.80;;;;;;;15.29;66.24;100173.78;4948032;28;20760;-78
2022/07/18 04:03:53;;;;;;;5.07;4.57;;;;;;;15.37;66.86;100179.34;4948488;28;20535;-78
2022/07/18 04:06:19;;;;;;;4.87;3.80;;;;;;;15.40;66.78;100169.34;4948988;28;20306;-78
2022/07/18 04:08:44;;;;;;;5.90;4.83;;;;;;;15.45;66.50;100166.38;4950200;28;20216;-78
2022/07/18 04:11:10;;;;;;;4.63;4.20;;;;;;;15.50;66.19;100169.53;4950532;28;20217;-78
2022/07/18 04:13:35;;;;;;;4.47;4.03;;;;;;;15.57;65.85;100167.25;4947336;28;20343;-78
2022/07/18 04:16:01;;;;;;;8.50;5.73;;;;;;;15.52;65.83;100172.03;4946769;28;20220;-78
2022/07/18 04:18:26;;;;;;;7.60;4.67;;;;;;;15.39;66.21;100172.09;4948890;28;20222;-78
2022/07/18 04:20:52;;;;;;;4.67;3.93;;;;;;;15.24;66.67;100174.09;4947869;28;20625;-79
2022/07/18 04:23:18;;;;;;;7.87;5.00;;;;;;;15.14;66.72;100173.94;4948210;28;20207;-78
2022/07/18 04:25:43;;;;;;;4.23;3.83;;;;;;;15.08;67.03;100173.53;4948704;28;20276;-78
2022/07/18 04:28:11;;;;;;;4.37;3.97;;;;;;;15.02;67.18;100166.91;4948895;28;20945;-78
2022/07/18 04:30:38;;;;;;;6.17;4.00;;;;;;;15.01;67.29;100170.47;4948561;28;20201;-78
2022/07/18 04:33:06;;;;;;;5.53;4.40;;;;;;;15.03;67.16;100180.00;4948852;28;20464;-79
2022/07/18 04:35:31;;;;;;;5.33;4.60;;;;;;;15.09;67.10;100173.41;4949439;28;20533;-79
2022/07/18 04:37:57;;;;;;;8.70;5.27;;;;;;;15.18;66.92;100174.56;4950363;28;20850;-79
2022/07/18 04:40:23;;;;;;;5.13;4.40;;;;;;;15.25;66.61;100173.97;4949820;28;20236;-79
2022/07/18 04:42:49;;;;;;;6.17;5.53;;;;;;;15.36;66.10;100181.13;4939450;28;20688;-79
2022/07/18 04:45:15;;;;;;;7.70;5.80;;;;;;;15.50;65.64;100180.13;4949348;28;20450;-78
2022/07/18 04:47:41;;;;;;;5.87;5.37;;;;;;;15.69;65.20;100180.44;4946567;28;20284;-78
2022/07/18 04:50:07;;;;;;;5.13;4.40;;;;;;;15.90;64.42;100171.78;4944823;28;20559;-78
2022/07/18 04:52:41;;;;;;;6.90;5.90;;;;;;;16.14;63.88;100174.34;4939992;28;20480;-78
2022/07/18 04:55:09;;;;;;;5.13;4.63;;;;;;;16.50;62.74;100173.28;4942000;28;20474;-78
2022/07/18 04:57:35;;;;;;;5.40;4.97;;;;;;;17.02;61.14;100166.47;4940593;28;20492;-78
2022/07/18 05:00:04;;;;;;;4.57;4.17;;;;;;;18.39;57.04;100160.28;4940183;28;20468;-78
2022/07/18 05:02:29;;;;;;;4.40;4.00;;;;;;;19.77;53.12;100160.31;4939369;28;20459;-78
2022/07/18 05:04:55;;;;;;;4.00;3.70;;;;;;;20.97;49.74;100153.19;4940937;28;20453;-78
2022/07/18 05:07:20;;;;;;;5.13;3.80;;;;;;;21.90;47.38;100146.63;4943446;28;20661;-76
2022/07/18 05:09:46;;;;;;;4.80;4.30;;;;;;;22.84;44.99;100145.72;4938760;28;20246;-76
2022/07/18 05:12:11;;;;;;;5.27;4.47;;;;;;;23.69;43.13;100145.50;4940703;28;20198;-76
2022/07/18 05:14:37;;;;;;;5.40;4.20;;;;;;;24.46;41.24;100143.97;4943192;28;20265;-76
2022/07/18 05:17:03;;;;;;;8.47;4.43;;;;;;;24.94;39.96;100136.69;4940124;28;20226;-76
2022/07/18 05:19:29;;;;;;;6.00;4.07;;;;;;;25.48;38.90;100137.66;4941239;28;20226;-76
2022/07/18 05:21:54;;;;;;;6.03;4.50;;;;;;;25.89;37.95;100132.75;4943994;28;20527;-76
2022/07/18 05:24:19;;;;;;;5.10;4.33;;;;;;;26.26;37.31;100137.22;4939823;28;20214;-76
2022/07/18 05:26:45;;;;;;;8.13;5.20;;;;;;;26.72;36.19;100136.16;4942275;28;20258;-76
2022/07/18 05:29:12;;;;;;;6.80;4.57;;;;;;;27.17;35.00;100134.16;4939905;28;20207;-76
2022/07/18 05:31:39;;;;;;;6.67;4.87;;;;;;;27.59;34.53;100133.28;4942007;28;20213;-76
2022/07/18 05:34:05;;;;;;;5.17;4.10;;;;;;;28.08;33.21;100136.97;4943930;28;20470;-76
2022/07/18 05:36:31;;;;;;;4.13;3.80;;;;;;;28.38;32.76;100132.16;4941683;28;20539;-76
2022/07/18 05:38:56;;;;;;;4.37;3.77;;;;;;;28.65;32.01;100122.31;4937121;28;20215;-76
2022/07/18 05:41:22;;;;;;;4.40;4.10;;;;;;;28.97;31.47;100130.69;4938937;28;20906;-76
2022/07/18 05:43:47;;;;;;;6.30;4.60;;;;;;;29.39;30.84;100133.28;4939589;28;20215;-76
2022/07/18 05:46:13;;;;;;;7.30;4.40;;;;;;;29.88;29.71;100129.31;4943190;28;20226;-76
2022/07/18 05:48:38;;;;;;;4.67;4.23;;;;;;;30.30;29.00;100127.97;4946610;28;20277;-76
2022/07/18 05:51:06;;;;;;;5.03;4.00;;;;;;;30.54;28.65;100128.28;4943987;28;20199;-77
2022/07/18 05:53:31;;;;;;;6.03;4.40;;;;;;;30.85;28.34;100125.66;4942399;28;20488;-76
2022/07/18 05:55:57;;;;;;;7.37;4.93;;;;;;;31.09;27.64;100126.75;4944067;28;20516;-76
2022/07/18 05:58:22;;;;;;;4.80;3.97;;;;;;;31.47;27.10;100122.31;4944810;28;20719;-77
2022/07/18 06:00:48;;;;;;;3.77;3.47;;;;;;;31.85;25.92;100119.44;4945841;28;20731;-76
2022/07/18 06:03:14;;;;;;;4.80;4.30;;;;;;;32.08;24.36;100120.69;4941244;28;20526;-76
2022/07/18 06:05:39;;;;;;;4.30;3.90;;;;;;;32.09;24.54;100116.94;4943835;28;20295;-76
2022/07/18 06:08:05;;;;;;;3.50;3.00;;;;;;;32.00;24.56;100116.41;4942833;28;20209;-76
2022/07/18 06:10:31;;;;;;;3.93;3.60;;;;;;;32.44;23.88;100117.13;4944863;28;20207;-76
2022/07/18 06:12:56;;;;;;;6.20;2.97;;;;;;;32.78;23.63;100115.66;4946077;28;20458;-76
2022/07/18 06:15:22;;;;;;;3.73;3.40;;;;;;;33.01;23.22;100105.94;4943586;29;20947;-77
2022/07/18 06:17:49;;;;;;;4.70;3.70;;;;;;;33.22;22.97;100110.84;4943467;28;20214;-76
2022/07/18 06:20:14;;;;;;;4.57;3.77;;;;;;;33.25;22.91;100110.34;4944846;28;20469;-76
2022/07/18 06:22:40;;;;;;;5.40;2.70;;;;;;;33.55;22.46;100120.38;4944430;28;20513;-77
2022/07/18 06:25:06;;;;;;;4.03;3.00;;;;;;;33.95;22.04;100116.09;4944113;28;20300;-77
2022/07/18 06:27:31;;;;;;;7.57;3.97;;;;;;;34.09;21.92;100110.16;4945467;28;20234;-76
2022/07/18 06:29:58;;;;;;;8.33;3.40;;;;;;;34.33;21.98;100105.47;4944871;28;20462;-75
2022/07/18 06:32:24;;;;;;;4.28;3.88;;;;;;;34.46;22.16;100109.84;4944130;28;20545;-76
2022/07/18 06:34:50;;;;;;;4.67;3.87;;;;;;;34.52;22.26;100102.56;4942255;28;20211;-76
2022/07/18 06:37:15;;;;;;;3.83;3.40;;;;;;;34.49;21.99;100101.16;4943221;28;20214;-76
2022/07/18 06:39:41;;;;;;;3.37;3.07;;;;;;;34.47;22.06;100103.28;4939716;28;20249;-76
2022/07/18 06:42:06;;;;;;;5.20;4.03;;;;;;;34.25;21.92;100103.13;4941796;28;20207;-76
2022/07/18 06:44:32;;;;;;;5.73;3.37;;;;;;;34.14;21.96;100104.00;4939877;28;20238;-76
2022/07/18 06:46:59;;;;;;;3.90;3.63;;;;;;;34.05;21.79;100103.56;4945274;28;20301;-76
2022/07/18 06:49:25;;;;;;;5.83;3.20;;;;;;;33.95;21.77;100103.28;4942790;28;20289;-76
2022/07/18 06:51:51;;;;;;;3.20;2.70;;;;;;;34.17;21.77;100103.50;4942367;28;20458;-76
2022/07/18 06:54:17;;;;;;;3.30;2.57;;;;;;;34.62;20.92;100093.75;4941266;28;20486;-76
2022/07/18 06:56:42;;;;;;;4.20;3.60;;;;;;;35.02;19.97;100101.84;4942883;28;21140;-77
2022/07/18 06:59:08;;;;;;;3.00;2.80;;;;;;;35.06;19.90;100096.75;4944440;28;20317;-76
2022/07/18 07:01:33;;;;;;;3.17;2.63;;;;;;;35.26;19.53;100094.38;4939734;28;20206;-76
2022/07/18 07:03:59;;;;;;;2.80;2.60;;;;;;;35.45;19.22;100084.84;4940575;28;20634;-76
2022/07/18 07:06:24;;;;;;;3.33;3.03;;;;;;;35.74;19.05;100094.84;4944031;28;20265;-79
2022/07/18 07:08:50;;;;;;;4.70;4.10;;;;;;;35.64;19.10;100090.88;4944907;28;20206;-80
2022/07/18 07:11:15;;;;;;;2.90;2.70;;;;;;;35.49;19.24;100084.38;4943907;28;20623;-78
2022/07/18 07:13:41;;;;;;;3.50;3.20;;;;;;;35.16;19.37;100089.59;4943706;28;20554;-77
2022/07/18 07:16:06;;;;;;;3.90;3.60;;;;;;;34.84;19.77;100083.81;4937594;28;20726;-77
2022/07/18 07:18:32;;;;;;;3.57;2.90;;;;;;;35.07;19.64;100082.06;4940322;28;20297;-80
2022/07/18 07:20:58;;;;;;;4.23;3.10;;;;;;;35.51;18.95;100085.75;4944335;28;20214;-77
2022/07/18 07:23:23;;;;;;;3.90;3.50;;;;;;;35.76;18.47;100089.97;4942307;28;20578;-77
2022/07/18 07:25:48;;;;;;;4.77;4.00;;;;;;;35.76;18.23;100090.78;4942035;28;20238;-79
2022/07/18 07:28:14;;;;;;;3.63;3.00;;;;;;;35.84;18.24;100090.38;4942584;28;20192;-78
2022/07/18 07:30:39;;;;;;;4.40;3.07;;;;;;;35.93;17.82;100095.38;4941555;28;20600;-79
2022/07/18 07:33:07;;;;;;;4.60;3.37;;;;;;;36.23;17.44;100101.28;4941603;28;20499;-79
2022/07/18 07:35:32;;;;;;;5.70;3.47;;;;;;;35.96;17.43;100100.34;4937005;28;20226;-78
2022/07/18 07:37:59;;;;;;;3.60;2.80;;;;;;;35.92;17.52;100093.72;4937767;28;20482;-81
2022/07/18 07:40:26;;;;;;;3.00;2.80;;;;;;;36.19;17.38;100085.63;4941552;28;20214;-80
2022/07/18 07:42:52;;;;;;;3.23;2.90;;;;;;;36.03;17.36;100084.59;4939992;28;21319;-77
2022/07/18 07:45:19;;;;;;;5.10;2.50;;;;;;;36.01;17.98;100086.75;4938413;28;20572;-79
2022/07/18 07:47:45;;;;;;;3.60;2.50;;;;;;;36.03;17.80;100082.69;4943175;28;20797;-79
2022/07/18 07:50:11;;;;;;;3.20;2.70;;;;;;;36.18;17.72;100093.00;4940394;28;20215;-78
2022/07/18 07:52:38;;;;;;;4.07;3.10;;;;;;;36.46;17.57;100086.50;4943119;28;20211;-80
2022/07/18 07:55:05;;;;;;;4.83;2.90;;;;;;;36.15;18.13;100077.09;4942787;28;21136;-79
2022/07/18 07:57:30;;;;;;;3.40;3.10;;;;;;;35.89;18.02;100082.22;4936307;28;20522;-79
2022/07/18 07:59:56;;;;;;;3.03;2.83;;;;;;;35.34;18.59;100076.75;4942611;28;20952;-78
2022/07/18 08:02:21;;;;;;;4.90;3.20;;;;;;;35.28;18.58;100073.13;4939738;28;20501;-80
2022/07/18 08:04:47;;;;;;;4.13;3.10;;;;;;;35.80;17.45;100075.53;4941633;28;21426;-78
2022/07/18 08:07:12;;;;;;;3.73;3.30;;;;;;;36.24;17.31;100070.13;4943286;28;20594;-80
2022/07/18 08:09:38;;;;;;;4.50;3.00;;;;;;;36.93;16.77;100065.91;4942669;28;20195;-78
2022/07/18 08:12:05;;;;;;;3.47;2.73;;;;;;;37.00;16.86;100066.50;4941827;28;20237;-79
2022/07/18 08:14:32;;;;;;;4.60;2.90;;;;;;;37.03;16.75;100059.72;4943795;28;20218;-80
2022/07/18 08:16:58;;;;;;;4.67;3.07;;;;;;;36.58;17.58;100067.22;4940189;28;20493;-78
2022/07/18 08:19:24;;;;;;;5.57;2.87;;;;;;;35.93;18.06;100062.59;4940259;28;20502;-78
2022/07/18 08:21:49;;;;;;;5.77;3.03;;;;;;;35.47;18.92;100055.38;4940081;28;20214;-81
2022/07/18 08:24:14;;;;;;;5.80;2.83;;;;;;;35.11;19.87;100058.66;4944111;28;20210;-80
2022/07/18 08:26:40;;;;;;;3.50;3.20;;;;;;;34.86;20.13;100050.81;4935765;28;20231;-77
2022/07/18 08:29:06;;;;;;;8.80;4.43;;;;;;;34.65;20.62;100052.34;4943776;28;20218;-79
2022/07/18 08:31:31;;;;;;;4.90;3.27;;;;;;;34.36;20.61;100053.16;4942847;28;20883;-78
2022/07/18 08:33:57;;;;;;;3.37;2.80;;;;;;;34.39;21.03;100053.75;4941498;28;20489;-79
2022/07/18 08:36:22;;;;;;;4.30;2.57;;;;;;;33.98;21.51;100045.56;4940572;28;20230;-79
2022/07/18 08:38:48;;;;;;;3.83;2.67;;;;;;;33.01;22.87;100051.50;4936794;28;20231;-78
2022/07/18 08:41:16;;;;;;;4.13;2.93;;;;;;;32.25;23.66;100052.97;4941045;28;20210;-77
2022/07/18 08:43:43;;;;;;;4.47;2.43;;;;;;;31.77;24.28;100053.72;4938773;28;20297;-80
2022/07/18 08:46:09;;;;;;;6.17;3.07;;;;;;;31.44;24.60;100058.44;4938711;28;21227;-79
2022/07/18 08:48:34;;;;;;;5.37;3.13;;;;;;;31.26;25.46;100052.94;4942240;28;20458;-78
2022/07/18 08:51:01;;;;;;;2.40;2.10;;;;;;;31.36;24.65;100055.97;4942542;28;20462;-80
2022/07/18 08:53:27;;;;;;;3.10;2.90;;;;;;;31.43;24.60;100061.38;4940961;28;20607;-77
2022/07/18 08:55:53;;;;;;;2.93;2.43;;;;;;;31.50;23.98;100054.00;4941671;28;20505;-77
2022/07/18 08:58:18;;;;;;;3.60;3.00;;;;;;;31.49;23.83;100055.88;4941790;28;20492;-77
2022/07/18 09:00:45;;;;;;;3.90;2.70;;;;;;;31.21;24.03;100050.06;4943066;28;20466;-78
2022/07/18 09:03:11;;;;;;;4.00;2.60;;;;;;;31.04;24.24;100045.19;4942585;28;20269;-80
2022/07/18 09:05:37;;;;;;;2.83;2.63;;;;;;;31.09;24.10;100053.50;4943819;28;20565;-77
2022/07/18 09:08:17;;;;;;;5.63;3.00;;;;;;;31.07;24.17;100052.03;4938385;28;20450;-77
2022/07/18 09:10:54;;;;;;;3.67;2.73;;;;;;;31.15;23.69;100048.22;4935343;28;20477;-77
2022/07/18 09:13:29;;;;;;;2.73;2.53;;;;;;;31.11;24.00;100044.28;4938120;28;21002;-79
2022/07/18 09:16:12;;;;;;;3.53;3.10;;;;;;;31.24;23.62;100049.59;4941235;28;21213;-76
2022/07/18 09:18:40;;;;;;;4.10;3.13;;;;;;;31.06;24.41;100045.78;4940758;28;21339;-76
2022/07/18 09:21:15;;;;;;;3.87;3.17;;;;;;;31.29;23.85;100050.59;4946545;28;20828;-77
2022/07/18 09:23:44;;;;;;;2.97;2.67;;;;;;;31.68;23.11;100042.34;4940990;28;20966;-79
2022/07/18 09:26:10;;;;;;;2.80;2.50;;;;;;;32.05;23.01;100043.16;4947949;28;20485;-77
2022/07/18 09:28:50;;;;;;;3.37;3.17;;;;;;;32.20;22.73;100045.50;4943343;28;20604;-77
2022/07/18 09:31:21;;;;;;;5.00;2.93;;;;;;;32.10;22.89;100031.63;4946160;28;20461;-77
2022/07/18 09:33:54;;;;;;;2.70;2.50;;;;;;;32.18;22.86;100036.75;4944143;28;20844;-79
2022/07/18 09:36:20;;;;;;;3.30;2.90;;;;;;;32.40;22.50;100037.06;4949739;28;20477;-79
2022/07/18 09:38:45;;;;;;;3.27;2.97;;;;;;;32.50;22.08;100031.94;4946603;28;20525;-77
2022/07/18 09:41:11;;;;;;;5.60;3.20;;;;;;;32.34;22.24;100027.94;4946375;28;20454;-79
2022/07/18 09:43:38;;;;;;;3.00;2.80;;;;;;;32.51;22.58;100033.59;4959905;28;20619;-80
2022/07/18 09:46:05;;;;;;;2.93;2.60;;;;;;;32.76;22.20;100033.44;4966908;28;20209;-79
2022/07/18 09:48:30;;;;;;;5.50;2.60;;;;;;;33.04;21.92;100030.09;4954741;28;20832;-80
2022/07/18 09:51:05;;;;;;;3.27;2.20;;;;;;;33.34;21.70;100031.88;4953461;28;20964;-79
2022/07/18 09:53:36;;;;;;;4.77;2.93;;;;;;;33.46;21.09;100031.88;4957385;28;20662;-78
2022/07/18 09:56:06;;;;;;;3.63;2.53;;;;;;;33.41;20.84;100026.31;4972328;28;20491;-78
2022/07/18 09:58:40;;;;;;;3.63;3.20;;;;;;;33.08;20.80;100026.88;4959278;28;20579;-79
2022/07/18 10:01:09;;;;;;;3.10;2.17;;;;;;;33.03;20.68;100027.63;4966201;28;20456;-77
2022/07/18 10:03:35;;;;;;;2.60;2.40;;;;;;;33.12;20.63;100030.81;4966057;28;20996;-79
2022/07/18 10:06:02;;;;;;;3.63;2.80;;;;;;;33.33;20.61;100027.50;4965306;28;20583;-78
2022/07/18 10:08:30;;;;;;;4.20;2.30;;;;;;;33.57;20.20;100019.34;4962454;28;20955;-77
2022/07/18 10:10:59;;;;;;;2.60;2.40;;;;;;;33.91;20.00;100026.59;4970970;28;20449;-79
2022/07/18 10:13:25;;;;;;;2.67;2.47;;;;;;;34.10;19.97;100015.56;4966242;28;20624;-77
2022/07/18 10:15:51;;;;;;;9.20;3.37;;;;;;;34.13;20.07;100023.25;4963718;28;20538;-78
2022/07/18 10:18:22;;;;;;;4.43;2.30;;;;;;;34.23;19.97;100017.19;4970627;28;20587;-77
2022/07/18 10:20:58;;;;;;;2.40;2.20;;;;;;;34.40;20.08;100018.03;4961382;28;20213;-77
2022/07/18 10:23:31;;;;;;;3.00;2.47;;;;;;;34.51;19.81;100016.34;4962930;28;20460;-78
2022/07/18 10:26:09;;;;;;;3.57;3.00;;;;;;;34.40;19.53;100011.78;4969253;28;21252;-78
2022/07/18 10:28:35;;;;;;;2.53;2.23;;;;;;;34.33;20.04;100007.31;4958811;28;21039;-81
2022/07/18 10:31:15;;;;;;;3.37;2.40;;;;;;;34.53;19.98;100008.75;4966722;28;20464;-80
2022/07/18 10:33:45;;;;;;;3.50;2.83;;;;;;;34.62;20.02;100006.47;4964828;28;20224;-79
2022/07/18 10:36:18;;;;;;;2.70;2.50;;;;;;;34.62;20.00;99996.41;4961562;28;20485;-79
2022/07/18 10:39:09;;;;;;;2.80;2.43;;;;;;;34.61;19.88;99999.38;4963787;28;20591;-78
2022/07/18 10:41:43;;;;;;;4.07;3.10;;;;;;;34.61;19.74;99999.38;4960103;28;20472;-80
2022/07/18 10:44:34;;;;;;;2.93;2.63;;;;;;;34.67;19.39;99998.38;4962998;28;21004;-79
2022/07/18 10:47:02;;;;;;;6.00;3.30;;;;;;;34.68;19.45;99992.69;4953393;28;21177;-80
2022/07/18 10:49:49;;;;;;;2.50;2.40;;;;;;;34.64;19.60;99996.97;4971447;28;20501;-78
2022/07/18 10:52:29;;;;;;;3.97;2.33;;;;;;;34.58;19.43;99998.78;4961766;28;20468;-78
2022/07/18 10:55:08;;;;;;;4.83;2.50;;;;;;;34.67;19.24;99987.44;4973143;28;20933;-78
2022/07/18 10:57:38;;;;;;;2.90;2.60;;;;;;;34.71;18.96;99985.91;4959249;28;20497;-78
2022/07/18 11:00:13;;;;;;;3.50;3.13;;;;;;;34.80;18.73;99993.41;4966866;28;20912;-79
2022/07/18 11:02:58;;;;;;;2.83;2.63;;;;;;;34.91;18.81;99985.38;4968126;28;20498;-79
2022/07/18 11:05:27;;;;;;;2.90;2.70;;;;;;;34.95;18.91;99983.84;4964083;28;20201;-78
2022/07/18 11:08:01;;;;;;;3.07;2.87;;;;;;;34.94;19.04;99980.25;4963136;28;21070;-79
2022/07/18 11:10:50;;;;;;;6.13;2.80;;;;;;;35.00;18.94;99987.47;4978032;28;20526;-79
2022/07/18 11:13:25;;;;;;;2.07;1.97;;;;;;;35.02;19.07;99982.56;4965349;28;20465;-78
2022/07/18 11:15:54;;;;;;;2.93;2.63;;;;;;;35.07;18.81;99979.13;4964310;28;21216;-78
2022/07/18 11:18:20;;;;;;;2.67;2.43;;;;;;;34.95;19.08;99975.66;4960456;28;21080;-79
2022/07/18 11:20:45;;;;;;;2.93;2.27;;;;;;;34.70;19.18;99968.72;4960274;28;20554;-78
2022/07/18 11:23:23;;;;;;;2.37;2.17;;;;;;;34.39;19.19;99975.50;4962282;28;20197;-79
2022/07/18 11:25:50;;;;;;;2.93;2.63;;;;;;;34.32;19.77;99974.81;4959587;28;20312;-79
2022/07/18 11:28:16;;;;;;;4.30;2.20;;;;;;;34.26;20.36;99971.16;4957826;28;20466;-78
2022/07/18 11:30:42;;;;;;;2.13;1.93;;;;;;;34.27;20.37;99969.25;4962219;28;20511;-78